Satori — WDC4937 — position and weather

sailwx.info

Track history (hours):
 
Tides and Currents Weather Stations Pressure Air Temp Water Temp Dewpoint Dewpoint Depression Visibility Wind Speed Wind Dir Waves Ship Positions

Satori

Owner: Wozny, Geoffrey A, Stamford, CT. More information available from US FCC via Universal Licensing System and Coast Guard Vessel Documentation Center.

Last reported at 2017-Jul-05 08:29 UTC. Time now 2017-Sep-26 11:23 UTC.
Position N 41°20' W 071°55'.
Warning: this ship's position is months out of date.

Length 13 m.

Type: Sailing vessel. MMSI: 367033160.

Date/timePositionNaut miles runAvg speedWind from/ knotsBaromVisibWave heightAir tempDewpointWater temp
2017-Jul-05 08:29N 41°20' W 071°55'0 0.0
2017-Jul-05 07:47N 41°20' W 071°55'0 0.0
2017-Jul-05 06:53N 41°20' W 071°55'0 0.0
2017-Jul-05 06:11N 41°20' W 071°55'0 0.0
2017-Jul-05 05:59N 41°20' W 071°55'0 0.0
2017-Jul-05 05:29N 41°20' W 071°55'0 0.0
2017-Jul-05 04:49N 41°20' W 071°55'0 0.0
2017-Jul-05 03:05N 41°20' W 071°55'0 0.0
2017-Jul-05 02:59N 41°20' W 071°55'0 0.0
2017-Jul-05 02:17N 41°20' W 071°55'0 0.0
2017-Jul-05 01:59N 41°20' W 071°55'0 0.0
2017-Jul-05 01:29N 41°20' W 071°55'0 0.0
2017-Jul-05 00:59N 41°20' W 071°55'0 0.0
2017-Jul-05 00:29N 41°20' W 071°55'0 0.0
2017-Jul-05 00:00N 41°20' W 071°55'0 0.0
2017-Jul-04 19:01N 41°20' W 071°55'1 0.4
2017-Jul-04 17:10N 41°20' W 071°55'2 5.2
2017-Jul-04 16:51N 41°18' W 071°54'  
2017-Jul-01 17:31N 41°12' W 072°23'0 7.0
2017-Jul-01 17:28N 41°12' W 072°23'3 6.3
2017-Jul-01 17:00N 41°13' W 072°27'2 5.0
2017-Jul-01 16:30N 41°15' W 072°28'1 2.0
2017-Jul-01 15:58N 41°16' W 072°28'0 0.0
2017-Jul-01 15:28N 41°16' W 072°28'0 0.0
2017-Jul-01 14:58N 41°16' W 072°28'0 0.0
2017-Jul-01 13:58N 41°16' W 072°28'0 0.0
2017-Jul-01 13:25N 41°16' W 072°28'0 0.0
2017-Jul-01 12:49N 41°16' W 072°28'0 0.0
2017-Jul-01 12:25N 41°16' W 072°28'0 0.0
2017-Jul-01 11:55N 41°16' W 072°28'0 0.0
2017-Jul-01 11:19N 41°16' W 072°28'0 0.0
2017-Jul-01 10:55N 41°16' W 072°28'0 0.0
2017-Jul-01 10:25N 41°16' W 072°28'0 0.0
2017-Jul-01 09:55N 41°16' W 072°28'0 0.0
2017-Jul-01 09:25N 41°16' W 072°28'0 0.0
2017-Jul-01 08:49N 41°16' W 072°28'0 0.0
2017-Jul-01 08:25N 41°16' W 072°28'0 0.0
2017-Jul-01 07:55N 41°16' W 072°28'0 0.0
2017-Jul-01 07:25N 41°16' W 072°28'0 0.0
2017-Jul-01 06:49N 41°16' W 072°28'0 0.0
2017-Jul-01 06:25N 41°16' W 072°28'0 0.0
2017-Jul-01 05:55N 41°16' W 072°28'0 0.0
2017-Jul-01 05:25N 41°16' W 072°28'0 0.0
2017-Jul-01 04:55N 41°16' W 072°28'0 0.0
2017-Jul-01 04:25N 41°16' W 072°28'0 0.0
2017-Jul-01 03:55N 41°16' W 072°28'0 0.0
2017-Jul-01 03:25N 41°16' W 072°28'0 0.0
2017-Jul-01 02:55N 41°16' W 072°28'0 0.0
2017-Jul-01 02:25N 41°16' W 072°28'0 0.0
2017-Jul-01 01:55N 41°16' W 072°28'0 0.0
2017-Jul-01 01:19N 41°16' W 072°28'0 0.0
2017-Jul-01 00:55N 41°16' W 072°28'0 0.0
2017-Jul-01 00:25N 41°16' W 072°28'0 0.0
2017-Jun-30 23:55N 41°16' W 072°28'0 0.0
2017-Jun-30 23:25N 41°16' W 072°28'0 0.0
2017-Jun-30 22:55N 41°16' W 072°28'0 0.0
2017-Jun-30 22:25N 41°16' W 072°28'0 0.0
2017-Jun-30 21:55N 41°16' W 072°28'0 0.0
2017-Jun-30 21:25N 41°16' W 072°28'0 0.0
2017-Jun-30 20:55N 41°16' W 072°28'0 0.0
2017-Jun-30 20:25N 41°16' W 072°28'0 1.1
2017-Jun-30 20:00N 41°16' W 072°28'2 3.6
2017-Jun-30 19:30N 41°15' W 072°30'2 4.6
2017-Jun-30 19:00N 41°14' W 072°33'  
Track history (hours):
 
Tides and Currents Weather Stations Pressure Air Temp Water Temp Dewpoint Dewpoint Depression Visibility Wind Speed Wind Dir Waves Ship Positions

Satori

Owner: Wozny, Geoffrey A, Stamford, CT. More information available from US FCC via Universal Licensing System and Coast Guard Vessel Documentation Center.

Last reported at 2017-Jul-05 08:29 UTC. Time now 2017-Sep-26 11:23 UTC.
Position N 41°20' W 071°55'.
Warning: this ship's position is months out of date.

Length 13 m.

Type: Sailing vessel. MMSI: 367033160.

Date/timePositionNaut miles runAvg speedWind from/ knotsBaromVisibWave heightAir tempDewpointWater temp
2017-Jul-05 08:29N 41°20' W 071°55'0 0.0
2017-Jul-05 07:47N 41°20' W 071°55'0 0.0
2017-Jul-05 06:53N 41°20' W 071°55'0 0.0
2017-Jul-05 06:11N 41°20' W 071°55'0 0.0
2017-Jul-05 05:59N 41°20' W 071°55'0 0.0
2017-Jul-05 05:29N 41°20' W 071°55'0 0.0
2017-Jul-05 04:49N 41°20' W 071°55'0 0.0
2017-Jul-05 03:05N 41°20' W 071°55'0 0.0
2017-Jul-05 02:59N 41°20' W 071°55'0 0.0
2017-Jul-05 02:17N 41°20' W 071°55'0 0.0
2017-Jul-05 01:59N 41°20' W 071°55'0 0.0
2017-Jul-05 01:29N 41°20' W 071°55'0 0.0
2017-Jul-05 00:59N 41°20' W 071°55'0 0.0
2017-Jul-05 00:29N 41°20' W 071°55'0 0.0
2017-Jul-05 00:00N 41°20' W 071°55'0 0.0
2017-Jul-04 19:01N 41°20' W 071°55'1 0.4
2017-Jul-04 17:10N 41°20' W 071°55'2 5.2
2017-Jul-04 16:51N 41°18' W 071°54'  
2017-Jul-01 17:31N 41°12' W 072°23'0 7.0
2017-Jul-01 17:28N 41°12' W 072°23'3 6.3
2017-Jul-01 17:00N 41°13' W 072°27'2 5.0
2017-Jul-01 16:30N 41°15' W 072°28'1 2.0
2017-Jul-01 15:58N 41°16' W 072°28'0 0.0
2017-Jul-01 15:28N 41°16' W 072°28'0 0.0
2017-Jul-01 14:58N 41°16' W 072°28'0 0.0
2017-Jul-01 13:58N 41°16' W 072°28'0 0.0
2017-Jul-01 13:25N 41°16' W 072°28'0 0.0
2017-Jul-01 12:49N 41°16' W 072°28'0 0.0
2017-Jul-01 12:25N 41°16' W 072°28'0 0.0
2017-Jul-01 11:55N 41°16' W 072°28'0 0.0
2017-Jul-01 11:19N 41°16' W 072°28'0 0.0
2017-Jul-01 10:55N 41°16' W 072°28'0 0.0
2017-Jul-01 10:25N 41°16' W 072°28'0 0.0
2017-Jul-01 09:55N 41°16' W 072°28'0 0.0
2017-Jul-01 09:25N 41°16' W 072°28'0 0.0
2017-Jul-01 08:49N 41°16' W 072°28'0 0.0
2017-Jul-01 08:25N 41°16' W 072°28'0 0.0
2017-Jul-01 07:55N 41°16' W 072°28'0 0.0
2017-Jul-01 07:25N 41°16' W 072°28'0 0.0
2017-Jul-01 06:49N 41°16' W 072°28'0 0.0
2017-Jul-01 06:25N 41°16' W 072°28'0 0.0
2017-Jul-01 05:55N 41°16' W 072°28'0 0.0
2017-Jul-01 05:25N 41°16' W 072°28'0 0.0
2017-Jul-01 04:55N 41°16' W 072°28'0 0.0
2017-Jul-01 04:25N 41°16' W 072°28'0 0.0
2017-Jul-01 03:55N 41°16' W 072°28'0 0.0
2017-Jul-01 03:25N 41°16' W 072°28'0 0.0
2017-Jul-01 02:55N 41°16' W 072°28'0 0.0
2017-Jul-01 02:25N 41°16' W 072°28'0 0.0
2017-Jul-01 01:55N 41°16' W 072°28'0 0.0
2017-Jul-01 01:19N 41°16' W 072°28'0 0.0
2017-Jul-01 00:55N 41°16' W 072°28'0 0.0
2017-Jul-01 00:25N 41°16' W 072°28'0 0.0
2017-Jun-30 23:55N 41°16' W 072°28'0 0.0
2017-Jun-30 23:25N 41°16' W 072°28'0 0.0
2017-Jun-30 22:55N 41°16' W 072°28'0 0.0
2017-Jun-30 22:25N 41°16' W 072°28'0 0.0
2017-Jun-30 21:55N 41°16' W 072°28'0 0.0
2017-Jun-30 21:25N 41°16' W 072°28'0 0.0
2017-Jun-30 20:55N 41°16' W 072°28'0 0.0
2017-Jun-30 20:25N 41°16' W 072°28'0 1.1
2017-Jun-30 20:00N 41°16' W 072°28'2 3.6
2017-Jun-30 19:30N 41°15' W 072°30'2 4.6
2017-Jun-30 19:00N 41°14' W 072°33'  

Dump ship's entire track history